Time;durP1;ratioP1;P1;durP2;ratioP2;P2;SDS_P1;SDS_P2;PMS_P1;PMS_P2;Temp;Humidity;BMP_temperature;BMP_pressure;BME280_temperature;BME280_humidity;BME280_pressure;Samples;Min_cycle;Max_cycle;Signal;HPM_P1;HPM_P2
2021/12/13 00:02:33;;;;;;;1999.90;999.90;;;0.30;99.90;;;;;;10457042;28;20375;-66
2021/12/13 00:07:42;;;;;;;1999.90;999.90;;;0.30;99.90;;;;;;10457200;28;20098;-66
2021/12/13 00:12:58;;;;;;;1999.90;999.90;;;0.30;99.90;;;;;;10438673;28;20103;-67
2021/12/13 00:18:14;;;;;;;1999.90;999.90;;;0.40;99.90;;;;;;10437521;28;20045;-67
2021/12/13 00:23:26;;;;;;;1999.90;999.90;;;0.50;99.90;;;;;;10434083;28;20107;-68
2021/12/13 00:28:35;;;;;;;1999.90;999.90;;;0.40;99.90;;;;;;10416321;28;20108;-68
2021/12/13 00:33:53;;;;;;;;;;;0.40;99.90;;;;;;10397120;28;20505;-67
2021/12/13 00:39:11;;;;;;;1999.90;999.90;;;0.30;99.90;;;;;;10416969;28;19924;-68
2021/12/13 00:44:41;;;;;;;1999.90;999.90;;;0.40;99.90;;;;;;10456135;28;20075;-68
2021/12/13 00:49:52;;;;;;;1999.90;999.90;;;0.40;99.90;;;;;;10456297;28;20444;-67
2021/12/13 00:54:58;;;;;;;1999.90;999.90;;;0.40;99.90;;;;;;10455413;28;20448;-68
2021/12/13 01:00:39;;;;;;;1999.90;999.90;;;0.40;99.90;;;;;;10439069;28;20041;-67
2021/12/13 01:05:49;;;;;;;1999.90;999.90;;;0.50;99.90;;;;;;10431960;28;20107;-67
2021/12/13 01:10:55;;;;;;;1999.90;999.90;;;0.50;99.90;;;;;;10460534;28;20115;-68
2021/12/13 01:16:34;;;;;;;1999.90;999.90;;;0.50;99.90;;;;;;10464017;28;20045;-68
2021/12/13 01:21:55;;;;;;;1999.90;999.90;;;0.60;99.90;;;;;;10463392;28;20049;-67
2021/12/13 01:27:02;;;;;;;1999.90;999.90;;;0.50;99.90;;;;;;10462618;28;20045;-67
2021/12/13 01:32:11;;;;;;;1999.90;999.90;;;0.50;99.90;;;;;;10462732;28;20110;-67
2021/12/13 01:37:17;;;;;;;1999.90;999.90;;;0.50;99.90;;;;;;10462871;28;20049;-67
2021/12/13 01:42:25;;;;;;;1999.90;999.90;;;0.40;99.90;;;;;;10462566;28;20049;-67
2021/12/13 01:47:35;;;;;;;1999.90;999.90;;;0.40;99.90;;;;;;10462048;28;20091;-67
2021/12/13 01:52:42;;;;;;;1999.90;999.90;;;0.40;99.90;;;;;;10461491;28;20099;-67
2021/12/13 01:57:54;;;;;;;1999.90;999.90;;;0.40;99.90;;;;;;10461558;28;20485;-67
2021/12/13 02:02:59;;;;;;;1999.90;999.90;;;0.40;99.90;;;;;;10461408;28;20053;-67
2021/12/13 02:08:11;;;;;;;1999.90;999.90;;;0.30;99.90;;;;;;10462065;28;20045;-67
2021/12/13 02:13:34;;;;;;;1999.90;999.90;;;0.30;99.90;;;;;;10461587;28;20064;-67
2021/12/13 02:18:42;;;;;;;1999.90;999.90;;;0.30;99.90;;;;;;10460838;28;20044;-67
2021/12/13 02:23:49;;;;;;;1999.90;999.90;;;0.30;99.90;;;;;;10459324;28;20049;-67
2021/12/13 02:29:07;;;;;;;1999.90;999.90;;;0.30;99.90;;;;;;10460332;28;20045;-67
2021/12/13 02:34:15;;;;;;;1999.90;999.90;;;0.30;99.90;;;;;;10460443;28;20060;-67
2021/12/13 02:39:24;;;;;;;1999.90;999.90;;;0.30;99.90;;;;;;10461678;28;20045;-67
2021/12/13 02:44:38;;;;;;;1999.90;999.90;;;0.20;99.90;;;;;;10459952;28;20044;-67
2021/12/13 02:49:46;;;;;;;1999.90;999.90;;;0.10;99.90;;;;;;10443883;28;20040;-67
2021/12/13 02:55:05;;;;;;;1999.90;999.90;;;0.10;99.90;;;;;;10459251;28;20053;-67
2021/12/13 03:00:16;;;;;;;1999.90;999.90;;;0.20;99.90;;;;;;10458989;28;20413;-67
2021/12/13 03:05:32;;;;;;;1999.90;999.90;;;0.20;99.90;;;;;;10458501;28;20049;-67
2021/12/13 03:10:44;;;;;;;1999.90;999.90;;;0.20;99.90;;;;;;10458660;28;20045;-67
2021/12/13 03:16:17;;;;;;;1999.90;999.90;;;0.20;99.90;;;;;;10459009;28;20049;-67
2021/12/13 03:21:51;;;;;;;1999.90;999.90;;;0.20;99.90;;;;;;10446287;28;20393;-67
2021/12/13 03:27:17;;;;;;;1999.90;999.90;;;0.10;99.90;;;;;;10437113;28;20046;-67
2021/12/13 03:32:51;;;;;;;1999.90;999.90;;;0.20;99.90;;;;;;10437209;28;20057;-67
2021/12/13 03:38:05;;;;;;;1999.90;999.90;;;0.10;99.90;;;;;;10437198;28;20053;-67
2021/12/13 03:43:19;;;;;;;1999.90;999.90;;;0.10;99.90;;;;;;10436817;28;20046;-67
2021/12/13 03:48:28;;;;;;;1999.90;999.90;;;0.10;99.90;;;;;;10435614;28;20033;-67
2021/12/13 03:53:34;;;;;;;1999.90;999.90;;;0.10;99.90;;;;;;10457532;28;20044;-67
2021/12/13 03:58:45;;;;;;;1999.90;999.90;;;0.00;99.90;;;;;;10456863;28;20049;-67
2021/12/13 04:03:54;;;;;;;1999.90;999.90;;;0.00;99.90;;;;;;10462795;28;20037;-67
2021/12/13 04:08:59;;;;;;;1999.90;999.90;;;-0.10;99.90;;;;;;10434978;28;20033;-67
2021/12/13 04:14:11;;;;;;;1999.90;999.90;;;-0.10;99.90;;;;;;10435266;28;20345;-67
2021/12/13 04:19:22;;;;;;;1999.90;999.90;;;-0.10;99.90;;;;;;10433820;28;20049;-67
2021/12/13 04:24:46;;;;;;;1999.90;999.90;;;-0.10;99.90;;;;;;10433906;28;20410;-67
2021/12/13 04:29:58;;;;;;;1999.90;999.90;;;-0.20;99.90;;;;;;10433580;28;20046;-67
2021/12/13 04:35:08;;;;;;;1999.90;999.90;;;-0.20;99.90;;;;;;10432876;28;20456;-67
2021/12/13 04:40:23;;;;;;;1999.90;999.90;;;-0.20;99.90;;;;;;10433890;28;20478;-67
2021/12/13 04:45:29;;;;;;;1999.90;999.90;;;-0.20;99.90;;;;;;10451504;28;20033;-67
2021/12/13 04:50:47;;;;;;;1999.90;999.90;;;-0.30;99.90;;;;;;10425346;28;20474;-67
2021/12/13 04:55:54;;;;;;;1999.90;999.90;;;-0.30;99.90;;;;;;10426835;28;20104;-67
2021/12/13 05:01:05;;;;;;;1999.90;999.90;;;-0.20;99.90;;;;;;10441911;28;20045;-67
2021/12/13 05:06:16;;;;;;;1999.90;999.90;;;-0.10;99.90;;;;;;10458325;28;20048;-67
2021/12/13 05:11:22;;;;;;;1999.90;999.90;;;-0.20;99.90;;;;;;10463904;28;20059;-67
2021/12/13 05:16:44;;;;;;;1999.90;999.90;;;-0.20;99.90;;;;;;10463058;28;20063;-67
2021/12/13 05:21:51;;;;;;;1999.90;999.90;;;-0.20;99.90;;;;;;10433157;28;20103;-67
2021/12/13 05:27:12;;;;;;;1999.90;999.90;;;-0.20;99.90;;;;;;10441300;28;20071;-67
2021/12/13 05:32:31;;;;;;;1999.90;999.90;;;-0.20;99.90;;;;;;10441710;28;20099;-67
2021/12/13 05:37:42;;;;;;;1999.90;999.90;;;-0.10;99.90;;;;;;10441555;28;20391;-67
2021/12/13 05:42:56;;;;;;;1999.90;999.90;;;-0.10;99.90;;;;;;10441901;28;20280;-67
2021/12/13 05:48:10;;;;;;;1999.90;999.90;;;0.00;99.90;;;;;;10441700;28;20088;-67
2021/12/13 05:53:23;;;;;;;1999.90;999.90;;;0.00;99.90;;;;;;10460426;28;20489;-67
2021/12/13 05:58:47;;;;;;;1999.90;999.90;;;0.00;99.90;;;;;;10440299;28;20068;-67
2021/12/13 06:04:08;;;;;;;1999.90;999.90;;;0.00;99.90;;;;;;10420139;28;20076;-68
2021/12/13 06:09:38;;;;;;;1999.90;999.90;;;-0.10;99.90;;;;;;10420358;28;20042;-67
2021/12/13 06:14:44;;;;;;;1999.90;999.90;;;-0.10;99.90;;;;;;10421314;28;20045;-68
2021/12/13 06:19:54;;;;;;;1999.90;999.90;;;-0.10;99.90;;;;;;10420796;28;20576;-67
2021/12/13 06:25:04;;;;;;;1999.90;999.90;;;-0.10;99.90;;;;;;10419660;28;20087;-67
2021/12/13 06:30:12;;;;;;;1999.90;999.90;;;-0.10;99.90;;;;;;10419566;28;20482;-67
2021/12/13 06:35:42;;;;;;;1999.90;999.90;;;-0.20;99.90;;;;;;10417270;28;20111;-67
2021/12/13 06:40:54;;;;;;;1999.90;999.90;;;-0.20;99.90;;;;;;10418507;28;20453;-67
2021/12/13 06:46:22;;;;;;;1999.90;999.90;;;-0.20;99.90;;;;;;10418420;28;20174;-67
2021/12/13 06:51:52;;;;;;;146.82;38.08;;;-0.30;99.90;;;;;;10418092;28;20107;-67
2021/12/13 06:57:03;;;;;;;1999.90;999.90;;;-0.20;99.90;;;;;;10417866;28;20502;-67
2021/12/13 07:02:26;;;;;;;1999.90;999.90;;;-0.20;99.90;;;;;;10418160;28;20072;-67
2021/12/13 07:07:38;;;;;;;1999.90;999.90;;;-0.20;99.90;;;;;;10417450;28;20045;-67
2021/12/13 07:12:59;;;;;;;1999.90;999.90;;;-0.10;99.90;;;;;;10418996;28;20053;-67
2021/12/13 07:18:17;;;;;;;1999.90;999.90;;;0.00;99.90;;;;;;10416041;28;20049;-67
2021/12/13 07:23:22;;;;;;;1999.90;999.90;;;0.00;99.90;;;;;;10417437;28;20084;-67
2021/12/13 07:28:36;;;;;;;1999.90;999.90;;;0.10;99.90;;;;;;10416593;28;20049;-67
2021/12/13 07:33:44;;;;;;;1999.90;999.90;;;0.10;99.90;;;;;;10424238;28;20054;-67
2021/12/13 07:38:57;;;;;;;1999.90;999.90;;;0.20;99.90;;;;;;10416974;28;20045;-68
2021/12/13 07:44:01;;;;;;;1999.90;999.90;;;0.30;99.90;;;;;;10399223;28;20048;-67
2021/12/13 07:49:12;;;;;;;1999.90;999.90;;;0.40;99.90;;;;;;10415739;28;20049;-67
2021/12/13 07:54:18;;;;;;;1999.90;999.90;;;0.50;99.90;;;;;;10416394;28;20049;-67
2021/12/13 07:59:42;;;;;;;1999.90;999.90;;;0.60;99.90;;;;;;10415675;28;20045;-67
2021/12/13 08:04:55;;;;;;;1999.90;999.90;;;0.60;99.90;;;;;;10416608;28;20064;-67
2021/12/13 08:10:08;;;;;;;1999.90;999.90;;;0.70;99.90;;;;;;10415149;28;20049;-67
2021/12/13 08:15:23;;;;;;;1999.90;999.90;;;0.70;99.90;;;;;;10415064;28;20191;-67
2021/12/13 08:20:35;;;;;;;1999.90;999.90;;;0.70;99.90;;;;;;10414578;28;20045;-67
2021/12/13 08:25:40;;;;;;;1999.90;999.90;;;0.80;99.90;;;;;;10415642;28;20410;-67
2021/12/13 08:30:56;;;;;;;1999.90;999.90;;;0.90;99.90;;;;;;10416434;28;20042;-67
2021/12/13 08:36:12;;;;;;;1999.90;999.90;;;1.10;99.90;;;;;;10414687;28;20095;-67
2021/12/13 08:41:20;;;;;;;1999.90;999.90;;;1.30;99.90;;;;;;10415451;28;20553;-67
2021/12/13 08:46:42;;;;;;;1999.90;999.90;;;1.40;99.90;;;;;;10414488;28;20410;-67
2021/12/13 08:51:55;;;;;;;1999.90;999.90;;;1.50;99.90;;;;;;10397153;28;20045;-68
2021/12/13 08:57:01;;;;;;;1999.90;999.90;;;1.50;99.90;;;;;;10414296;28;20489;-68
2021/12/13 09:02:10;;;;;;;1999.90;999.90;;;1.50;99.90;;;;;;10414775;28;20064;-67
2021/12/13 09:07:20;;;;;;;1999.90;999.90;;;1.50;99.90;;;;;;10414111;28;20095;-67
2021/12/13 09:12:45;;;;;;;1999.90;999.90;;;1.50;99.90;;;;;;10416549;28;20072;-67
2021/12/13 09:17:53;;;;;;;1999.90;999.90;;;1.60;99.90;;;;;;10414517;28;20103;-67
2021/12/13 09:23:17;;;;;;;1999.90;999.90;;;1.80;99.90;;;;;;10413748;28;20116;-67
2021/12/13 09:28:29;;;;;;;1999.90;999.90;;;2.00;99.90;;;;;;10396147;28;20514;-67
2021/12/13 09:33:58;;;;;;;1999.90;999.90;;;1.90;99.90;;;;;;10420349;28;20502;-67
2021/12/13 09:39:28;;;;;;;1999.90;999.90;;;1.80;99.90;;;;;;10423006;28;20045;-67
2021/12/13 09:45:01;;;;;;;1999.90;999.90;;;1.90;99.90;;;;;;10420762;28;20041;-67
2021/12/13 09:50:19;;;;;;;1999.90;999.90;;;2.00;99.90;;;;;;10420295;28;20453;-67
2021/12/13 09:55:31;;;;;;;1999.90;999.90;;;2.00;99.90;;;;;;10420539;28;20095;-67
2021/12/13 10:00:51;;;;;;;1999.90;999.90;;;2.10;99.90;;;;;;10420269;28;20049;-67
2021/12/13 10:06:06;;;;;;;1999.90;999.90;;;2.10;99.90;;;;;;10420600;28;20045;-67
2021/12/13 10:11:20;;;;;;;1999.90;999.90;;;2.30;99.90;;;;;;10419789;28;20047;-67
2021/12/13 10:16:31;;;;;;;1999.90;999.90;;;2.40;99.90;;;;;;10420177;28;20088;-66
2021/12/13 10:21:40;;;;;;;1999.90;999.90;;;2.40;99.90;;;;;;10419518;28;20049;-67
2021/12/13 10:26:47;;;;;;;1999.90;999.90;;;2.40;99.90;;;;;;10419141;28;20050;-67
2021/12/13 10:32:17;;;;;;;1999.90;999.90;;;2.50;99.90;;;;;;10419264;28;20080;-66
2021/12/13 10:37:32;;;;;;;1999.90;999.90;;;2.50;99.90;;;;;;10418964;28;20072;-67
2021/12/13 10:42:42;;;;;;;1999.90;999.90;;;2.60;99.90;;;;;;10418193;28;20102;-67
2021/12/13 10:47:50;;;;;;;1999.90;999.90;;;2.70;99.90;;;;;;10418020;28;20104;-67
2021/12/13 10:52:56;;;;;;;1999.90;999.90;;;2.70;99.90;;;;;;10418254;28;20049;-67
2021/12/13 10:58:03;;;;;;;1999.90;999.90;;;2.60;99.90;;;;;;10418617;28;20045;-67
2021/12/13 11:03:12;;;;;;;1999.90;999.90;;;2.60;99.90;;;;;;10417910;28;20115;-67
2021/12/13 11:08:20;;;;;;;1999.90;999.90;;;2.50;99.90;;;;;;10418035;28;20046;-66
2021/12/13 11:13:29;;;;;;;1999.90;999.90;;;2.40;99.90;;;;;;10417433;28;20053;-67
2021/12/13 11:18:35;;;;;;;1999.90;999.90;;;2.40;99.90;;;;;;10417349;28;20490;-67
2021/12/13 11:23:40;;;;;;;1999.90;999.90;;;2.20;99.90;;;;;;10417217;28;20437;-67
2021/12/13 11:28:45;;;;;;;1999.90;999.90;;;2.20;99.90;;;;;;10416664;28;20460;-66
2021/12/13 11:34:03;;;;;;;1999.90;999.90;;;2.20;99.90;;;;;;10416611;28;20057;-67
2021/12/13 11:39:09;;;;;;;1999.90;999.90;;;2.20;99.90;;;;;;10418103;28;20049;-66
2021/12/13 11:44:44;;;;;;;1999.90;999.90;;;2.20;99.90;;;;;;10399360;28;20046;-66
2021/12/13 11:50:13;;;;;;;1999.90;999.90;;;2.20;99.90;;;;;;10415321;28;20449;-66
2021/12/13 11:55:55;;;;;;;1999.90;999.90;;;2.20;99.90;;;;;;10415566;28;20050;-66
2021/12/13 12:01:40;;;;;;;1999.90;999.90;;;2.10;99.90;;;;;;10415653;28;20123;-67
2021/12/13 12:07:03;;;;;;;1999.90;999.90;;;2.10;99.90;;;;;;10415487;28;20049;-67
2021/12/13 12:12:29;;;;;;;1999.90;999.90;;;2.10;99.90;;;;;;10415355;28;20053;-66
2021/12/13 12:17:34;;;;;;;1999.90;999.90;;;2.00;99.90;;;;;;10402921;28;20053;-66
2021/12/13 12:22:51;;;;;;;1999.90;999.90;;;1.90;99.90;;;;;;10414867;28;20053;-67
2021/12/13 12:28:04;;;;;;;1999.90;999.90;;;1.90;99.90;;;;;;10414741;28;20103;-67
2021/12/13 12:33:18;;;;;;;1999.90;999.90;;;1.90;99.90;;;;;;10414738;28;20107;-66
2021/12/13 12:38:31;;;;;;;1999.90;999.90;;;1.90;99.90;;;;;;10414898;28;20108;-66
2021/12/13 12:43:41;;;;;;;1999.90;999.90;;;1.80;99.90;;;;;;10415081;28;20041;-66
2021/12/13 12:48:46;;;;;;;1999.90;999.90;;;1.80;99.90;;;;;;10414327;28;20046;-66
2021/12/13 12:54:02;;;;;;;1999.90;999.90;;;1.70;99.90;;;;;;10414492;28;20053;-67
2021/12/13 12:59:19;;;;;;;1999.90;999.90;;;1.60;99.90;;;;;;10414406;28;20050;-67
2021/12/13 13:04:30;;;;;;;1999.90;999.90;;;1.70;99.90;;;;;;10415101;28;20115;-66
2021/12/13 13:09:35;;;;;;;1999.90;999.90;;;1.70;99.90;;;;;;10422102;28;20045;-66
2021/12/13 13:14:50;;;;;;;1999.90;999.90;;;1.60;99.90;;;;;;10422088;28;20049;-67
2021/12/13 13:19:59;;;;;;;1999.90;999.90;;;1.60;99.90;;;;;;10422395;28;20045;-66
2021/12/13 13:25:13;;;;;;;1999.90;999.90;;;1.60;99.90;;;;;;10422293;28;20382;-67
2021/12/13 13:30:24;;;;;;;1999.90;999.90;;;1.60;99.90;;;;;;10421018;28;20375;-66
2021/12/13 13:35:29;;;;;;;1999.90;999.90;;;1.50;99.90;;;;;;10421749;28;20103;-66
2021/12/13 13:40:39;;;;;;;1999.90;999.90;;;1.50;99.90;;;;;;10420968;28;20111;-66
2021/12/13 13:45:49;;;;;;;1999.90;999.90;;;1.40;99.90;;;;;;10420978;28;20049;-66
2021/12/13 13:50:58;;;;;;;1999.90;999.90;;;1.40;99.90;;;;;;10421173;28;20445;-66
2021/12/13 13:56:12;;;;;;;1999.90;999.90;;;1.30;99.90;;;;;;10421059;28;20041;-66
2021/12/13 14:01:32;;;;;;;1999.90;999.90;;;1.30;99.90;;;;;;10420374;28;20339;-67
2021/12/13 14:06:42;;;;;;;1999.90;999.90;;;1.30;99.90;;;;;;10420225;28;20073;-66
2021/12/13 14:12:00;;;;;;;1999.90;999.90;;;1.30;99.90;;;;;;10422085;28;20467;-66
2021/12/13 14:17:05;;;;;;;1999.90;999.90;;;1.20;99.90;;;;;;10420156;28;20107;-67
2021/12/13 14:22:13;;;;;;;1999.90;999.90;;;1.20;99.90;;;;;;10419814;28;20050;-66
2021/12/13 14:27:28;;;;;;;1999.90;999.90;;;1.20;99.90;;;;;;10419678;28;20226;-66
2021/12/13 14:32:33;;;;;;;1999.90;999.90;;;1.20;99.90;;;;;;10418832;28;20103;-66
2021/12/13 14:37:39;;;;;;;1999.90;999.90;;;1.20;99.90;;;;;;10401248;28;20057;-66
2021/12/13 14:42:45;;;;;;;1999.90;999.90;;;1.20;99.90;;;;;;10419869;28;20045;-66
2021/12/13 14:47:56;;;;;;;1999.90;999.90;;;1.10;99.90;;;;;;10419046;28;20445;-67
2021/12/13 14:53:09;;;;;;;1999.90;999.90;;;1.10;99.90;;;;;;10418341;28;20050;-66
2021/12/13 14:58:19;;;;;;;1999.90;999.90;;;1.10;99.90;;;;;;10418237;28;20072;-66
2021/12/13 15:03:24;;;;;;;1999.90;999.90;;;1.00;99.90;;;;;;10417900;28;20107;-66
2021/12/13 15:08:31;;;;;;;1999.90;999.90;;;1.10;99.90;;;;;;10418500;28;20049;-66
2021/12/13 15:13:47;;;;;;;1999.90;999.90;;;1.20;99.90;;;;;;10417644;28;20111;-66
2021/12/13 15:18:55;;;;;;;1999.90;999.90;;;1.10;99.90;;;;;;10417602;28;20076;-66
2021/12/13 15:24:01;;;;;;;1999.90;999.90;;;1.10;99.90;;;;;;10417720;28;20071;-66
2021/12/13 15:29:21;;;;;;;1999.90;999.90;;;1.00;99.90;;;;;;10417907;28;20049;-66
2021/12/13 15:34:36;;;;;;;1999.90;999.90;;;1.10;99.90;;;;;;10416408;28;20049;-67
2021/12/13 15:39:41;;;;;;;1999.90;999.90;;;1.10;99.90;;;;;;10416972;28;20049;-67
2021/12/13 15:44:46;;;;;;;1999.90;999.90;;;1.10;99.90;;;;;;10416342;28;20099;-66
2021/12/13 15:49:51;;;;;;;1999.90;999.90;;;1.10;99.90;;;;;;10416132;28;20049;-66
2021/12/13 15:54:59;;;;;;;1999.90;999.90;;;1.20;99.90;;;;;;10415940;28;20507;-66
2021/12/13 16:00:09;;;;;;;1999.90;999.90;;;1.20;99.90;;;;;;10416854;28;20470;-67
2021/12/13 16:05:21;;;;;;;1999.90;999.90;;;1.20;99.90;;;;;;10415226;28;20053;-66
2021/12/13 16:10:26;;;;;;;1999.90;999.90;;;1.20;99.90;;;;;;10415938;28;20038;-66
2021/12/13 16:15:32;;;;;;;1999.90;999.90;;;1.20;99.90;;;;;;10415170;28;20054;-66
2021/12/13 16:20:47;;;;;;;1999.90;999.90;;;1.10;99.90;;;;;;10415238;28;20383;-66
2021/12/13 16:26:01;;;;;;;1999.90;999.90;;;1.00;99.90;;;;;;10415588;28;20049;-67
2021/12/13 16:31:23;;;;;;;1999.90;999.90;;;1.00;99.90;;;;;;10414986;28;20402;-66
2021/12/13 16:36:36;;;;;;;1999.90;999.90;;;1.00;99.90;;;;;;10414586;28;20049;-66
2021/12/13 16:41:54;;;;;;;1999.90;999.90;;;1.00;99.90;;;;;;10413935;28;20119;-66
2021/12/13 16:47:10;;;;;;;1999.90;999.90;;;1.10;99.90;;;;;;10414251;28;20592;-66
2021/12/13 16:52:27;;;;;;;1999.90;999.90;;;1.10;99.90;;;;;;10414452;28;20092;-67
2021/12/13 16:57:39;;;;;;;1999.90;999.90;;;1.20;99.90;;;;;;10414335;28;20049;-66
2021/12/13 17:02:45;;;;;;;1999.90;999.90;;;1.10;99.90;;;;;;10414623;28;20054;-67
2021/12/13 17:07:53;;;;;;;1999.90;999.90;;;1.10;99.90;;;;;;10414062;28;20123;-67
2021/12/13 17:13:05;;;;;;;1999.90;999.90;;;1.10;99.90;;;;;;10413971;28;20445;-66
2021/12/13 17:18:19;;;;;;;1999.90;999.90;;;1.20;99.90;;;;;;10413686;28;20057;-66
2021/12/13 17:23:30;;;;;;;1999.90;999.90;;;1.20;99.90;;;;;;10413766;28;20049;-67
2021/12/13 17:28:38;;;;;;;1999.90;999.90;;;1.10;99.90;;;;;;10414100;28;20450;-66
2021/12/13 17:33:43;;;;;;;1999.90;999.90;;;1.20;99.90;;;;;;10413224;28;20053;-66
2021/12/13 17:38:58;;;;;;;1999.90;999.90;;;1.10;99.90;;;;;;10413472;28;20300;-67
2021/12/13 17:44:15;;;;;;;1999.90;999.90;;;1.10;99.90;;;;;;10413568;28;20049;-66
2021/12/13 17:49:47;;;;;;;1999.90;999.90;;;1.10;99.90;;;;;;10413420;28;20495;-66
2021/12/13 17:54:59;;;;;;;1999.90;999.90;;;1.20;99.90;;;;;;10420491;28;20111;-66
2021/12/13 18:00:32;;;;;;;1999.90;999.90;;;1.20;99.90;;;;;;10420949;28;20465;-66
2021/12/13 18:05:37;;;;;;;1999.90;999.90;;;1.20;99.90;;;;;;10419753;28;20069;-66
2021/12/13 18:10:42;;;;;;;1999.90;999.90;;;1.00;99.90;;;;;;10421042;28;20045;-66
2021/12/13 18:15:51;;;;;;;1999.90;999.90;;;1.00;99.90;;;;;;10419679;28;20111;-66
2021/12/13 18:21:04;;;;;;;1999.90;999.90;;;1.10;99.90;;;;;;10419593;28;20576;-66
2021/12/13 18:26:10;;;;;;;1999.90;999.90;;;1.10;99.90;;;;;;10420117;28;20046;-67
2021/12/13 18:31:23;;;;;;;1999.90;999.90;;;1.10;99.90;;;;;;10419700;28;20045;-66
2021/12/13 18:36:36;;;;;;;1999.90;999.90;;;1.10;99.90;;;;;;10419604;28;20099;-66
2021/12/13 18:41:49;;;;;;;1999.90;999.90;;;1.20;99.90;;;;;;10419364;28;20045;-66
2021/12/13 18:47:09;;;;;;;1999.90;999.90;;;1.20;99.90;;;;;;10419198;28;20037;-66
2021/12/13 18:52:15;;;;;;;1999.90;999.90;;;1.20;99.90;;;;;;10419479;28;20045;-67
2021/12/13 18:57:27;;;;;;;1999.90;999.90;;;1.20;99.90;;;;;;10419318;28;20045;-67
2021/12/13 19:02:37;;;;;;;1999.90;999.90;;;1.10;99.90;;;;;;10417305;28;20049;-66
2021/12/13 19:07:52;;;;;;;1999.90;999.90;;;1.10;99.90;;;;;;10417906;28;20095;-67
2021/12/13 19:12:58;;;;;;;1999.90;999.90;;;1.10;99.90;;;;;;10418118;28;20045;-66
2021/12/13 19:18:06;;;;;;;1999.90;999.90;;;1.20;99.90;;;;;;10417846;28;20100;-66
2021/12/13 19:23:21;;;;;;;1999.90;999.90;;;1.20;99.90;;;;;;10417679;28;20050;-66
2021/12/13 19:28:31;;;;;;;1999.90;999.90;;;1.20;99.90;;;;;;10399988;28;20037;-66
2021/12/13 19:33:46;;;;;;;1999.90;999.90;;;1.10;99.90;;;;;;10417103;28;20080;-66
2021/12/13 19:39:06;;;;;;;1999.90;999.90;;;1.10;99.90;;;;;;10416423;28;20509;-66
2021/12/13 19:44:24;;;;;;;1999.90;999.90;;;1.10;99.90;;;;;;10399723;28;20045;-66
2021/12/13 19:49:37;;;;;;;1999.90;999.90;;;1.20;99.90;;;;;;10418485;28;20094;-66
2021/12/13 19:54:49;;;;;;;1999.90;999.90;;;1.10;99.90;;;;;;10418052;28;20473;-66
2021/12/13 20:00:12;;;;;;;1999.90;999.90;;;1.20;99.90;;;;;;10433417;28;20049;-67
2021/12/13 20:05:28;;;;;;;1999.90;999.90;;;1.20;99.90;;;;;;10416233;28;20041;-66
2021/12/13 20:10:57;;;;;;;1999.90;999.90;;;1.20;99.90;;;;;;10416769;28;20403;-66
2021/12/13 20:16:19;;;;;;;1999.90;999.90;;;1.30;99.90;;;;;;10456833;28;20053;-66
2021/12/13 20:21:23;;;;;;;;;;;1.20;99.90;;;;;;10457429;28;20053;-65
2021/12/13 20:26:43;;;;;;;1999.90;999.90;;;1.20;99.90;;;;;;10455798;28;19928;-66
2021/12/13 20:32:02;;;;;;;1999.90;999.90;;;1.20;99.90;;;;;;10456370;28;20084;-66
2021/12/13 20:37:13;;;;;;;1999.90;999.90;;;1.20;99.90;;;;;;10456492;28;20041;-66
2021/12/13 20:42:22;;;;;;;1999.90;999.90;;;1.30;99.90;;;;;;10456038;28;20102;-66
2021/12/13 20:47:37;;;;;;;1999.90;999.90;;;1.40;99.90;;;;;;10455605;28;20091;-66
2021/12/13 20:52:42;;;;;;;1999.90;999.90;;;1.30;99.90;;;;;;10456094;28;20048;-66
2021/12/13 20:58:03;;;;;;;1999.90;999.90;;;1.30;99.90;;;;;;10455588;28;20057;-65
2021/12/13 21:03:35;;;;;;;1999.90;999.90;;;1.40;99.90;;;;;;10455419;28;20498;-65
2021/12/13 21:08:42;;;;;;;1999.90;999.90;;;1.40;99.90;;;;;;10455280;28;20094;-67
2021/12/13 21:13:52;;;;;;;1999.90;999.90;;;1.30;99.90;;;;;;10455111;28;20049;-66
2021/12/13 21:19:16;;;;;;;1999.90;999.90;;;1.40;99.90;;;;;;10455717;28;20041;-66
2021/12/13 21:24:38;;;;;;;1999.90;999.90;;;1.40;99.90;;;;;;10455298;28;20120;-65
2021/12/13 21:29:50;;;;;;;1999.90;999.90;;;1.40;99.90;;;;;;10463100;28;20045;-66
2021/12/13 21:35:27;;;;;;;1999.90;999.90;;;1.50;99.90;;;;;;10462825;28;20056;-65
2021/12/13 21:40:37;;;;;;;1999.90;999.90;;;1.40;99.90;;;;;;10462509;28;20453;-66
2021/12/13 21:45:49;;;;;;;1999.90;999.90;;;1.30;99.90;;;;;;10462793;28;20037;-65
2021/12/13 21:51:24;;;;;;;1999.90;999.90;;;1.20;99.90;;;;;;10462489;28;20102;-65
2021/12/13 21:56:36;;;;;;;1999.90;999.90;;;1.30;99.90;;;;;;10461671;28;20482;-66
2021/12/13 22:01:48;;;;;;;1999.90;999.90;;;1.30;99.90;;;;;;10461482;28;20049;-66
2021/12/13 22:06:55;;;;;;;1999.90;999.90;;;1.30;99.90;;;;;;10461584;28;20053;-66
2021/12/13 22:12:07;;;;;;;1999.90;999.90;;;1.30;99.90;;;;;;10451271;28;20559;-67
2021/12/13 22:17:33;;;;;;;1999.90;999.90;;;1.50;99.90;;;;;;10458628;28;20098;-66
2021/12/13 22:22:44;;;;;;;1999.90;999.90;;;1.40;99.90;;;;;;10460016;28;20061;-67
2021/12/13 22:27:49;;;;;;;1999.90;999.90;;;1.40;99.90;;;;;;10460610;28;20049;-67
2021/12/13 22:32:55;;;;;;;1999.90;999.90;;;1.50;99.90;;;;;;10460663;28;20071;-66
2021/12/13 22:38:11;;;;;;;1999.90;999.90;;;1.50;99.90;;;;;;10439336;28;20399;-67
2021/12/13 22:44:00;;;;;;;1999.90;999.90;;;1.40;99.90;;;;;;10437935;28;20045;-66
2021/12/13 22:49:16;;;;;;;1999.90;999.90;;;1.40;99.90;;;;;;10436742;28;20045;-66
2021/12/13 22:54:25;;;;;;;1999.90;999.90;;;1.40;99.90;;;;;;10419397;28;20045;-67
2021/12/13 22:59:34;;;;;;;1999.90;999.90;;;1.40;99.90;;;;;;10436728;28;20562;-67
2021/12/13 23:04:56;;;;;;;1999.90;999.90;;;1.40;99.90;;;;;;10438891;28;20053;-67
2021/12/13 23:10:23;;;;;;;1999.90;999.90;;;1.40;99.90;;;;;;10459050;28;20049;-64
2021/12/13 23:15:34;;;;;;;1999.90;999.90;;;1.40;99.90;;;;;;10460325;28;20477;-65
2021/12/13 23:20:40;;;;;;;1999.90;999.90;;;1.50;99.90;;;;;;10458510;28;20045;-66
2021/12/13 23:25:46;;;;;;;1999.90;999.90;;;1.40;99.90;;;;;;10459000;28;20033;-66
2021/12/13 23:30:54;;;;;;;1999.90;999.90;;;1.40;99.90;;;;;;10458109;28;20378;-66
2021/12/13 23:36:11;;;;;;;1999.90;999.90;;;1.40;99.90;;;;;;10457853;28;20053;-66
2021/12/13 23:47:00;;;;;;;1999.90;999.90;;;1.40;99.90;;;;;;10457604;28;20061;-66
2021/12/13 23:52:14;;;;;;;1999.90;999.90;;;1.50;99.90;;;;;;10457072;28;20049;-66
2021/12/13 23:57:22;;;;;;;1999.90;999.90;;;1.50;99.90;;;;;;10457223;28;20049;-66
